createdAt,value
2023-11-16T00:01:21.684Z,97631.69
2023-11-16T00:03:49.723Z,97634.16
2023-11-16T00:06:16.234Z,97640.97
2023-11-16T00:08:42.736Z,97633.09
2023-11-16T00:11:09.222Z,97630.19
2023-11-16T00:13:35.731Z,97621.09
2023-11-16T00:16:02.286Z,97628.56
2023-11-16T00:18:31.739Z,97619.41
2023-11-16T00:20:59.483Z,97613.00
2023-11-16T00:23:26.039Z,97600.56
2023-11-16T00:25:52.544Z,97601.41
2023-11-16T00:28:21.187Z,97589.16
2023-11-16T00:30:47.750Z,97592.06
2023-11-16T00:33:28.372Z,97586.88
2023-11-16T00:35:54.952Z,97585.44
2023-11-16T00:38:21.437Z,97573.38
2023-11-16T00:40:47.951Z,97572.13
2023-11-16T00:43:14.446Z,97562.16
2023-11-16T00:45:41.003Z,97560.69
2023-11-16T00:48:07.658Z,97553.69
2023-11-16T00:50:34.169Z,97547.44
2023-11-16T00:53:00.613Z,97539.78
2023-11-16T00:55:27.112Z,97534.16
2023-11-16T00:57:53.545Z,97536.00
2023-11-16T01:00:20.247Z,97525.22
2023-11-16T01:02:47.010Z,97527.72
2023-11-16T01:05:13.529Z,97526.88
2023-11-16T01:07:40.162Z,97518.34
2023-11-16T01:10:06.722Z,97519.41
2023-11-16T01:12:33.220Z,97518.34
2023-11-16T01:14:59.752Z,97510.69
2023-11-16T01:17:26.329Z,97508.44
2023-11-16T01:19:55.263Z,97493.50
2023-11-16T01:22:21.737Z,97488.78
2023-11-16T01:24:48.270Z,97487.53
2023-11-16T01:27:14.865Z,97484.22
2023-11-16T01:29:41.376Z,97487.28
2023-11-16T01:32:07.811Z,97488.13
2023-11-16T01:34:34.331Z,97481.53
2023-11-16T01:37:00.729Z,97477.78
2023-11-16T01:39:27.213Z,97472.19
2023-11-16T01:41:53.685Z,97473.44
2023-11-16T01:44:20.102Z,97466.81
2023-11-16T01:46:46.562Z,97462.09
2023-11-16T01:49:13.018Z,97463.72
2023-11-16T01:51:39.467Z,97461.03
2023-11-16T01:54:05.964Z,97450.25
2023-11-16T01:56:32.435Z,97455.63
2023-11-16T01:58:58.931Z,97461.22
2023-11-16T02:01:25.412Z,97459.38
2023-11-16T02:03:51.972Z,97469.09
2023-11-16T02:06:18.509Z,97465.59
2023-11-16T02:08:44.922Z,97475.91
2023-11-16T02:11:11.402Z,97472.63
2023-11-16T02:13:37.866Z,97463.53
2023-11-16T02:16:04.406Z,97470.53
2023-11-16T02:18:30.853Z,97458.13
2023-11-16T02:20:57.318Z,97459.97
2023-11-16T02:23:23.813Z,97461.84
2023-11-16T02:25:50.257Z,97458.13
2023-11-16T02:28:16.760Z,97456.47
2023-11-16T02:30:43.256Z,97458.94
2023-11-16T02:33:09.866Z,97461.00
2023-11-16T02:35:36.337Z,97461.00
2023-11-16T02:38:02.870Z,97469.91
2023-11-16T02:40:29.424Z,97464.09
2023-11-16T02:42:55.910Z,97469.69
2023-11-16T02:45:22.421Z,97469.69
2023-11-16T02:47:48.957Z,97472.34
2023-11-16T02:50:15.468Z,97465.31
2023-11-16T02:52:41.921Z,97466.16
2023-11-16T02:55:08.390Z,97465.31
2023-11-16T02:57:34.916Z,97455.78
2023-11-16T03:00:01.625Z,97454.13
2023-11-16T03:02:28.178Z,97447.91
2023-11-16T03:04:57.716Z,97446.06
2023-11-16T03:07:30.808Z,97446.88
2023-11-16T03:09:59.806Z,97459.72
2023-11-16T03:12:26.333Z,97448.50
2023-11-16T03:14:52.898Z,97440.44
2023-11-16T03:17:19.346Z,97428.03
2023-11-16T03:19:45.798Z,97431.09
2023-11-16T03:22:12.237Z,97430.09
2023-11-16T03:24:38.689Z,97414.31
2023-11-16T03:27:05.258Z,97414.97
2023-11-16T03:29:31.664Z,97415.38
2023-11-16T03:31:58.215Z,97410.41
2023-11-16T03:34:24.760Z,97404.63
2023-11-16T03:36:51.250Z,97395.50
2023-11-16T03:39:17.679Z,97387.63
2023-11-16T03:41:44.152Z,97386.38
2023-11-16T03:44:10.622Z,97384.94
2023-11-16T03:46:39.345Z,97379.75
2023-11-16T03:49:05.920Z,97395.91
2023-11-16T03:51:32.494Z,97386.16
2023-11-16T03:53:58.944Z,97385.53
2023-11-16T03:56:25.416Z,97387.00
2023-11-16T03:58:51.907Z,97393.78
2023-11-16T04:01:18.369Z,97389.69
2023-11-16T04:03:45.116Z,97394.22
2023-11-16T04:06:13.213Z,97397.88
2023-11-16T04:08:42.404Z,97407.44
2023-11-16T04:11:08.878Z,97408.72
2023-11-16T04:13:35.301Z,97407.47
2023-11-16T04:16:01.809Z,97399.41
2023-11-16T04:18:28.324Z,97392.38
2023-11-16T04:20:54.892Z,97381.41
2023-11-16T04:23:21.359Z,97378.09
2023-11-16T04:25:47.836Z,97378.50
2023-11-16T04:28:14.382Z,97376.63
2023-11-16T04:30:40.911Z,97369.38
2023-11-16T04:33:07.549Z,97360.94
2023-11-16T04:35:35.391Z,97364.44
2023-11-16T04:38:01.865Z,97369.38
2023-11-16T04:40:28.279Z,97360.69
2023-11-16T04:42:54.697Z,97362.78
2023-11-16T04:45:21.138Z,97346.66
2023-11-16T04:47:49.750Z,97344.31
2023-11-16T04:50:16.501Z,97334.59
2023-11-16T04:52:42.963Z,97330.84
2023-11-16T04:55:12.209Z,97316.81
2023-11-16T04:57:40.373Z,97312.22
2023-11-16T05:00:06.877Z,97315.13
2023-11-16T05:02:33.425Z,97315.06
2023-11-16T05:05:00.005Z,97325.16
2023-11-16T05:07:26.453Z,97323.09
2023-11-16T05:09:55.388Z,97312.56
2023-11-16T05:12:22.125Z,97295.63
2023-11-16T05:14:48.617Z,97283.03
2023-11-16T05:17:15.056Z,97264.81
2023-11-16T05:19:41.486Z,97271.44
2023-11-16T05:22:07.968Z,97265.06
2023-11-16T05:24:34.479Z,97270.00
2023-11-16T05:27:01.001Z,97270.66
2023-11-16T05:29:27.396Z,97275.63
2023-11-16T05:31:53.858Z,97271.91
2023-11-16T05:34:20.258Z,97264.25
2023-11-16T05:36:46.751Z,97272.09
2023-11-16T05:39:13.208Z,97269.41
2023-11-16T05:41:39.701Z,97275.00
2023-11-16T05:44:06.239Z,97284.31
2023-11-16T05:46:35.402Z,97281.59
2023-11-16T05:49:01.861Z,97274.59
2023-11-16T05:51:31.330Z,97271.72
2023-11-16T05:53:57.792Z,97270.03
2023-11-16T05:56:24.240Z,97274.59
2023-11-16T05:58:50.681Z,97268.38
2023-11-16T06:01:17.206Z,97259.50
2023-11-16T06:03:43.809Z,97255.78
2023-11-16T06:06:10.392Z,97258.84
2023-11-16T06:08:36.914Z,97254.31
2023-11-16T06:11:03.481Z,97244.59
2023-11-16T06:13:30.002Z,97240.22
2023-11-16T06:15:56.536Z,97243.50
2023-11-16T06:18:24.070Z,97236.84
2023-11-16T06:20:50.518Z,97243.25
2023-11-16T06:23:16.963Z,97237.00
2023-11-16T06:25:43.489Z,97252.47
2023-11-16T06:28:10.005Z,97260.66
2023-11-16T06:30:36.458Z,97276.34
2023-11-16T06:33:02.993Z,97275.09
2023-11-16T06:35:29.519Z,97274.72
2023-11-16T06:37:56.034Z,97268.19
2023-11-16T06:40:22.503Z,97273.19
2023-11-16T06:42:48.989Z,97284.38
2023-11-16T06:45:15.515Z,97288.56
2023-11-16T06:47:42.082Z,97288.78
2023-11-16T06:50:08.685Z,97280.31
2023-11-16T06:52:35.170Z,97290.25
2023-11-16T06:55:01.987Z,97280.09
2023-11-16T06:57:28.947Z,97304.34
2023-11-16T06:59:55.488Z,97306.19
2023-11-16T07:02:22.033Z,97297.09
2023-11-16T07:04:48.497Z,97298.53
2023-11-16T07:07:15.033Z,97296.47
2023-11-16T07:09:41.536Z,97283.06
2023-11-16T07:12:08.021Z,97277.06
2023-11-16T07:14:43.608Z,97285.13
2023-11-16T07:17:17.544Z,97264.03
2023-11-16T07:19:44.075Z,97256.56
2023-11-16T07:22:10.551Z,97247.28
2023-11-16T07:24:36.979Z,97243.34
2023-11-16T07:27:03.447Z,97264.88
2023-11-16T07:29:29.857Z,97261.97
2023-11-16T07:31:56.333Z,97261.56
2023-11-16T07:34:22.729Z,97242.31
2023-11-16T07:36:49.329Z,97259.91
2023-11-16T07:39:15.909Z,97252.50
2023-11-16T07:41:42.403Z,97241.28
2023-11-16T07:44:08.854Z,97247.50
2023-11-16T07:46:35.320Z,97242.72
2023-11-16T07:49:01.800Z,97218.13
2023-11-16T07:51:28.322Z,97226.00
2023-11-16T07:53:54.876Z,97218.31
2023-11-16T07:56:21.361Z,97188.31
2023-11-16T07:58:47.820Z,97168.47
2023-11-16T08:01:14.302Z,97146.34
2023-11-16T08:03:40.991Z,97107.47
2023-11-16T08:06:07.544Z,97115.53
2023-11-16T08:08:33.996Z,97103.31
2023-11-16T08:11:00.481Z,97099.81
2023-11-16T08:13:29.081Z,97104.56
2023-11-16T08:15:55.866Z,97126.47
2023-11-16T08:18:22.367Z,97124.03
2023-11-16T08:20:48.799Z,97130.00
2023-11-16T08:23:15.315Z,97118.88
2023-11-16T08:25:41.834Z,97122.75
2023-11-16T08:28:08.313Z,97146.56
2023-11-16T08:30:34.776Z,97147.59
2023-11-16T08:33:01.279Z,97150.09
2023-11-16T08:35:27.946Z,97131.25
2023-11-16T08:37:54.427Z,97130.22
2023-11-16T08:40:20.947Z,97161.22
2023-11-16T08:42:47.372Z,97179.66
2023-11-16T08:45:13.873Z,97188.34
2023-11-16T08:47:40.297Z,97206.78
2023-11-16T08:50:06.802Z,97228.91
2023-11-16T08:52:33.221Z,97224.16
2023-11-16T08:54:59.615Z,97223.97
2023-11-16T08:57:26.181Z,97208.81
2023-11-16T08:59:52.765Z,97204.69
2023-11-16T09:02:19.158Z,97193.31
2023-11-16T09:04:45.643Z,97182.72
2023-11-16T09:07:12.111Z,97184.19
2023-11-16T09:09:38.905Z,97172.34
2023-11-16T09:12:05.402Z,97168.84
2023-11-16T09:14:31.864Z,97145.84
2023-11-16T09:17:09.516Z,97131.09
2023-11-16T09:19:39.158Z,97106.69
2023-11-16T09:22:05.624Z,97095.72
2023-11-16T09:24:32.216Z,97069.47
2023-11-16T09:26:58.774Z,97063.66
2023-11-16T09:29:25.282Z,97052.66
2023-11-16T09:31:51.808Z,97052.44
2023-11-16T09:34:18.317Z,97034.03
2023-11-16T09:36:44.823Z,97027.44
2023-11-16T09:39:11.321Z,97034.69
2023-11-16T09:41:37.801Z,97047.34
2023-11-16T09:44:04.249Z,97049.59
2023-11-16T09:46:30.770Z,97053.97
2023-11-16T09:49:00.233Z,97053.75
2023-11-16T09:51:27.008Z,97039.84
2023-11-16T09:53:53.484Z,97023.28
2023-11-16T09:56:24.682Z,97023.72
2023-11-16T09:58:54.010Z,97007.13
2023-11-16T10:01:20.499Z,96993.22
2023-11-16T10:03:47.217Z,96960.50
2023-11-16T10:06:13.770Z,96938.56
2023-11-16T10:08:40.264Z,96916.56
2023-11-16T10:11:06.771Z,96901.88
2023-11-16T10:13:33.227Z,96888.19
2023-11-16T10:15:59.815Z,96893.56
2023-11-16T10:18:26.316Z,96895.63
2023-11-16T10:20:52.824Z,96892.50
2023-11-16T10:23:19.253Z,96858.34
2023-11-16T10:25:45.677Z,96862.56
2023-11-16T10:28:12.155Z,96860.72
2023-11-16T10:30:38.645Z,96861.53
2023-11-16T10:33:05.100Z,96841.03
2023-11-16T10:35:31.511Z,96829.66
2023-11-16T10:37:58.018Z,96825.75
2023-11-16T10:40:24.474Z,96827.91
2023-11-16T10:42:50.917Z,96820.63
2023-11-16T10:45:17.433Z,96829.81
2023-11-16T10:47:43.995Z,96855.88
2023-11-16T10:50:10.620Z,96831.25
2023-11-16T10:52:37.056Z,96791.66
2023-11-16T10:55:05.512Z,96772.75
2023-11-16T10:57:33.162Z,96753.09
2023-11-16T10:59:59.641Z,96762.38
2023-11-16T11:02:26.167Z,96765.06
2023-11-16T11:04:52.868Z,96765.28
2023-11-16T11:07:19.401Z,96768.78
2023-11-16T11:09:45.998Z,96759.44
2023-11-16T11:12:12.424Z,96758.41
2023-11-16T11:14:38.864Z,96778.25
2023-11-16T11:17:05.408Z,96818.28
2023-11-16T11:19:31.921Z,96816.28
2023-11-16T11:21:58.418Z,96820.13
2023-11-16T11:24:24.900Z,96806.53
2023-11-16T11:26:51.419Z,96808.16
2023-11-16T11:29:17.822Z,96822.22
2023-11-16T11:31:44.365Z,96805.31
2023-11-16T11:34:10.821Z,96772.84
2023-11-16T11:36:37.468Z,96773.72
2023-11-16T11:39:03.915Z,96774.75
2023-11-16T11:41:32.355Z,96771.94
2023-11-16T11:43:58.826Z,96768.31
2023-11-16T11:46:25.363Z,96754.06
2023-11-16T11:48:51.813Z,96763.56
2023-11-16T11:51:21.075Z,96760.66
2023-11-16T11:53:49.782Z,96742.25
2023-11-16T11:56:16.681Z,96735.78
2023-11-16T11:58:43.306Z,96739.47
2023-11-16T12:01:09.807Z,96745.28
2023-11-16T12:03:36.448Z,96759.53
2023-11-16T12:06:03.053Z,96772.16
2023-11-16T12:08:29.573Z,96768.59
2023-11-16T12:10:56.020Z,96787.88
2023-11-16T12:13:22.566Z,96781.00
2023-11-16T12:15:49.397Z,96781.38
2023-11-16T12:18:17.124Z,96798.38
2023-11-16T12:20:45.043Z,96794.22
2023-11-16T12:23:11.557Z,96786.72
2023-11-16T12:25:38.060Z,96796.25
2023-11-16T12:28:04.585Z,96796.56
2023-11-16T12:30:31.309Z,96810.81
2023-11-16T12:32:57.731Z,96794.00
2023-11-16T12:35:24.188Z,96783.41
2023-11-16T12:37:50.719Z,96771.53
2023-11-16T12:40:17.187Z,96739.19
2023-11-16T12:42:43.671Z,96724.22
2023-11-16T12:45:10.185Z,96708.91
2023-11-16T12:47:38.120Z,96701.88
2023-11-16T12:50:06.711Z,96661.66
2023-11-16T12:52:33.316Z,96659.13
2023-11-16T12:54:59.807Z,96680.88
2023-11-16T12:57:26.461Z,96697.63
2023-11-16T12:59:52.935Z,96691.78
2023-11-16T13:02:19.788Z,96689.94
2023-11-16T13:04:46.316Z,96682.91
2023-11-16T13:07:12.804Z,96669.44
2023-11-16T13:09:39.293Z,96625.16
2023-11-16T13:12:12.571Z,96604.81
2023-11-16T13:14:46.938Z,96589.94
2023-11-16T13:17:13.529Z,96587.94
2023-11-16T13:19:42.378Z,96570.50
2023-11-16T13:22:08.829Z,96550.97
2023-11-16T13:24:37.967Z,96552.97
2023-11-16T13:27:04.449Z,96560.38
2023-11-16T13:29:30.874Z,96565.53
2023-11-16T13:31:57.342Z,96583.22
2023-11-16T13:34:23.819Z,96583.63
2023-11-16T13:36:50.316Z,96581.28
2023-11-16T13:39:16.836Z,96613.41
2023-11-16T13:41:43.240Z,96616.25
2023-11-16T13:44:09.812Z,96626.84
2023-11-16T13:46:36.272Z,96649.44
2023-11-16T13:49:02.762Z,96646.09
2023-11-16T13:51:29.201Z,96644.78
2023-11-16T13:53:55.722Z,96670.69
2023-11-16T13:56:22.139Z,96679.16
2023-11-16T13:58:50.437Z,96676.06
2023-11-16T14:01:18.351Z,96641.22
2023-11-16T14:03:45.063Z,96620.84
2023-11-16T14:06:11.624Z,96645.69
2023-11-16T14:08:38.157Z,96605.94
2023-11-16T14:11:04.663Z,96588.88
2023-11-16T14:13:31.308Z,96577.03
2023-11-16T14:16:04.628Z,96584.44
2023-11-16T14:18:32.126Z,96588.63
2023-11-16T14:20:58.688Z,96567.47
2023-11-16T14:23:25.754Z,96548.47
2023-11-16T14:25:54.533Z,96543.84
2023-11-16T14:28:21.189Z,96482.78
2023-11-16T14:30:47.728Z,96482.78
2023-11-16T14:33:14.353Z,96503.69
2023-11-16T14:35:40.882Z,96495.84
2023-11-16T14:38:07.398Z,96493.28
2023-11-16T14:40:33.904Z,96497.41
2023-11-16T14:43:00.506Z,96488.25
2023-11-16T14:45:27.076Z,96482.03
2023-11-16T14:47:53.708Z,96480.16
2023-11-16T14:50:20.299Z,96497.16
2023-11-16T14:52:49.154Z,96527.84
2023-11-16T14:55:19.526Z,96483.56
2023-11-16T14:57:46.011Z,96516.81
2023-11-16T15:00:12.590Z,96521.75
2023-11-16T15:02:39.140Z,96515.06
2023-11-16T15:05:09.585Z,96501.34
2023-11-16T15:07:37.459Z,96502.72
2023-11-16T15:10:04.084Z,96514.44
2023-11-16T15:12:30.606Z,96505.06
2023-11-16T15:14:57.251Z,96547.25
2023-11-16T15:17:23.764Z,96566.44
2023-11-16T15:19:50.303Z,96538.00
2023-11-16T15:22:16.825Z,96487.28
2023-11-16T15:24:43.390Z,96500.09
2023-11-16T15:27:11.185Z,96525.38
2023-11-16T15:29:39.057Z,96528.53
2023-11-16T15:32:05.693Z,96507.47
2023-11-16T15:34:32.386Z,96515.41
2023-11-16T15:36:58.997Z,96488.63
2023-11-16T15:39:25.532Z,96501.63
2023-11-16T15:41:52.005Z,96499.56
2023-11-16T15:44:18.461Z,96512.63
2023-11-16T15:46:49.317Z,96523.81
2023-11-16T15:49:18.773Z,96473.53
2023-11-16T15:51:46.878Z,96495.31
2023-11-16T15:54:13.506Z,96509.13
2023-11-16T15:56:40.073Z,96525.19
2023-11-16T15:59:08.682Z,96530.59
2023-11-16T16:01:35.303Z,96487.44
2023-11-16T16:04:03.312Z,96496.63
2023-11-16T16:06:29.955Z,96483.53
2023-11-16T16:08:56.483Z,96467.63
2023-11-16T16:11:23.014Z,96460.38
2023-11-16T16:13:49.562Z,96423.41
2023-11-16T16:16:16.276Z,96431.34
2023-11-16T16:18:42.896Z,96455.59
2023-11-16T16:21:09.591Z,96471.69
2023-11-16T16:23:36.105Z,96494.53
2023-11-16T16:26:02.675Z,96466.88
2023-11-16T16:28:29.274Z,96503.31
2023-11-16T16:30:55.871Z,96515.03
2023-11-16T16:33:22.345Z,96502.16
2023-11-16T16:35:48.755Z,96518.34
2023-11-16T16:38:15.218Z,96520.44
2023-11-16T16:40:41.682Z,96531.59
2023-11-16T16:43:08.208Z,96543.75
2023-11-16T16:45:34.828Z,96525.59
2023-11-16T16:48:06.935Z,96514.56
2023-11-16T16:50:37.107Z,96514.09
2023-11-16T16:53:03.612Z,96512.59
2023-11-16T16:55:30.232Z,96501.69
2023-11-16T16:57:56.940Z,96471.94
2023-11-16T17:00:23.468Z,96480.25
2023-11-16T17:02:52.429Z,96494.75
2023-11-16T17:05:19.036Z,96497.47
2023-11-16T17:07:45.492Z,96487.38
2023-11-16T17:10:12.093Z,96484.53
2023-11-16T17:12:38.624Z,96495.78
2023-11-16T17:15:05.194Z,96491.41
2023-11-16T17:17:31.884Z,96503.56
2023-11-16T17:19:58.469Z,96520.94
2023-11-16T17:22:24.912Z,96528.81
2023-11-16T17:24:51.408Z,96539.03
2023-11-16T17:27:19.504Z,96540.31
2023-11-16T17:29:47.275Z,96541.38
2023-11-16T17:32:13.865Z,96556.75
2023-11-16T17:34:40.337Z,96570.16
2023-11-16T17:37:06.867Z,96561.84
2023-11-16T17:39:33.410Z,96591.88
2023-11-16T17:42:00.344Z,96575.91
2023-11-16T17:44:26.959Z,96604.06
2023-11-16T17:46:53.534Z,96620.25
2023-11-16T17:49:20.098Z,96577.66
2023-11-16T17:51:46.713Z,96580.72
2023-11-16T17:54:13.195Z,96588.81
2023-11-16T17:56:39.910Z,96586.81
2023-11-16T17:59:06.416Z,96582.59
2023-11-16T18:01:32.911Z,96596.94
2023-11-16T18:03:59.561Z,96600.81
2023-11-16T18:06:26.124Z,96611.13
2023-11-16T18:08:52.635Z,96586.59
2023-11-16T18:11:19.090Z,96619.56
2023-11-16T18:13:45.725Z,96610.75
2023-11-16T18:16:12.225Z,96637.53
2023-11-16T18:18:38.798Z,96658.91
2023-11-16T18:21:05.313Z,96670.53
2023-11-16T18:23:31.767Z,96676.25
2023-11-16T18:25:58.327Z,96655.38
2023-11-16T18:28:24.801Z,96645.97
2023-11-16T18:30:51.365Z,96628.00
2023-11-16T18:33:20.676Z,96635.06
2023-11-16T18:35:47.175Z,96650.19
2023-11-16T18:38:13.663Z,96639.09
2023-11-16T18:40:40.152Z,96646.00
2023-11-16T18:43:06.691Z,96631.53
2023-11-16T18:45:33.281Z,96638.34
2023-11-16T18:47:59.820Z,96644.06
2023-11-16T18:50:26.332Z,96630.00
2023-11-16T18:52:52.829Z,96662.69
2023-11-16T18:55:19.790Z,96694.50
2023-11-16T18:57:46.379Z,96678.22
2023-11-16T19:00:12.917Z,96635.41
2023-11-16T19:02:40.505Z,96645.38
2023-11-16T19:05:07.077Z,96659.00
2023-11-16T19:07:33.544Z,96654.16
2023-11-16T19:10:00.024Z,96675.41
2023-11-16T19:12:26.495Z,96666.78
2023-11-16T19:14:53.004Z,96701.44
2023-11-16T19:17:19.526Z,96689.00
2023-11-16T19:19:46.016Z,96680.34
2023-11-16T19:22:12.586Z,96686.97
2023-11-16T19:24:39.123Z,96665.56
2023-11-16T19:27:05.580Z,96676.56
2023-11-16T19:29:32.053Z,96704.72
2023-11-16T19:31:58.585Z,96707.00
2023-11-16T19:34:25.091Z,96705.91
2023-11-16T19:36:51.682Z,96717.97
2023-11-16T19:39:18.197Z,96735.00
2023-11-16T19:41:44.708Z,96728.06
2023-11-16T19:44:11.199Z,96743.47
2023-11-16T19:46:37.728Z,96752.34
2023-11-16T19:49:04.217Z,96781.06
2023-11-16T19:51:30.699Z,96770.16
2023-11-16T19:53:57.206Z,96775.28
2023-11-16T19:56:24.852Z,96755.22
2023-11-16T19:58:52.329Z,96748.31
2023-11-16T20:01:18.954Z,96734.53
2023-11-16T20:03:47.090Z,96747.13
2023-11-16T20:06:14.764Z,96742.69
2023-11-16T20:08:41.200Z,96762.59
2023-11-16T20:11:07.820Z,96784.34
2023-11-16T20:13:34.379Z,96759.72
2023-11-16T20:16:00.839Z,96761.94
2023-11-16T20:18:27.345Z,96755.56
2023-11-16T20:20:57.600Z,96776.47
2023-11-16T20:23:26.381Z,96774.00
2023-11-16T20:25:53.006Z,96774.00
2023-11-16T20:28:19.517Z,96795.28
2023-11-16T20:30:46.092Z,96799.34
2023-11-16T20:33:12.670Z,96836.81
2023-11-16T20:35:39.221Z,96857.97
2023-11-16T20:38:05.676Z,96842.56
2023-11-16T20:40:33.468Z,96852.78
2023-11-16T20:42:59.969Z,96864.22
2023-11-16T20:45:26.410Z,96873.28
2023-11-16T20:47:53.025Z,96843.16
2023-11-16T20:50:19.600Z,96863.88
2023-11-16T20:52:46.172Z,96855.72
2023-11-16T20:55:12.988Z,96838.28
2023-11-16T20:57:39.752Z,96841.16
2023-11-16T21:00:06.344Z,96852.91
2023-11-16T21:02:32.940Z,96925.13
2023-11-16T21:04:59.604Z,96908.53
2023-11-16T21:07:26.057Z,96909.16
2023-11-16T21:09:52.533Z,96889.75
2023-11-16T21:12:19.028Z,96931.63
2023-11-16T21:14:46.489Z,96916.66
2023-11-16T21:17:12.951Z,96942.91
2023-11-16T21:19:39.431Z,96933.63
2023-11-16T21:22:05.932Z,96947.38
2023-11-16T21:24:32.394Z,96988.75
2023-11-16T21:26:58.923Z,96979.69
2023-11-16T21:29:25.362Z,96966.06
2023-11-16T21:31:51.953Z,96950.78
2023-11-16T21:34:18.589Z,96957.03
2023-11-16T21:36:45.002Z,96949.84
2023-11-16T21:39:11.501Z,96966.63
2023-11-16T21:41:37.976Z,96989.47
2023-11-16T21:44:04.497Z,96967.47
2023-11-16T21:46:31.083Z,96985.25
2023-11-16T21:48:57.588Z,96993.44
2023-11-16T21:51:24.123Z,96982.16
2023-11-16T21:53:50.644Z,96979.81
2023-11-16T21:56:17.149Z,96969.00
2023-11-16T21:58:43.582Z,96976.38
2023-11-16T22:01:10.035Z,96990.50
2023-11-16T22:03:36.596Z,97006.59
2023-11-16T22:06:03.060Z,97016.34
2023-11-16T22:08:29.520Z,97013.09
2023-11-16T22:10:55.952Z,97015.91
2023-11-16T22:13:22.443Z,96995.59
2023-11-16T22:15:49.067Z,96981.22
2023-11-16T22:18:15.670Z,96978.06
2023-11-16T22:20:42.068Z,96984.06
2023-11-16T22:23:08.580Z,96993.69
2023-11-16T22:25:35.116Z,96981.91
2023-11-16T22:28:01.644Z,97001.31
2023-11-16T22:30:28.128Z,97021.31
2023-11-16T22:32:54.661Z,97031.63
2023-11-16T22:35:21.200Z,97032.56
2023-11-16T22:37:47.757Z,97048.41
2023-11-16T22:40:14.356Z,97032.09
2023-11-16T22:42:40.929Z,97058.31
2023-11-16T22:45:07.389Z,97078.66
2023-11-16T22:47:33.945Z,97066.31
2023-11-16T22:50:00.424Z,97075.44
2023-11-16T22:52:26.855Z,97079.66
2023-11-16T22:54:53.400Z,97086.00
2023-11-16T22:57:19.811Z,97107.31
2023-11-16T22:59:46.266Z,97154.47
2023-11-16T23:02:12.730Z,97120.22
2023-11-16T23:04:39.342Z,97162.97
2023-11-16T23:07:08.308Z,97146.28
2023-11-16T23:09:34.748Z,97149.47
2023-11-16T23:12:01.184Z,97133.41
2023-11-16T23:14:27.626Z,97143.16
2023-11-16T23:16:54.143Z,97123.28
2023-11-16T23:19:20.790Z,97154.75
2023-11-16T23:21:47.344Z,97180.84
2023-11-16T23:24:13.865Z,97179.50
2023-11-16T23:26:40.370Z,97189.56
2023-11-16T23:29:06.807Z,97230.56
2023-11-16T23:31:33.359Z,97200.56
2023-11-16T23:33:59.910Z,97201.31
2023-11-16T23:36:26.420Z,97206.44
2023-11-16T23:38:52.946Z,97201.94
2023-11-16T23:41:20.840Z,97201.16
2023-11-16T23:43:48.933Z,97194.09
2023-11-16T23:46:15.536Z,97209.97
2023-11-16T23:48:42.091Z,97203.66
2023-11-16T23:51:15.851Z,97212.06
2023-11-16T23:53:46.102Z,97214.56
2023-11-16T23:56:12.580Z,97208.75
2023-11-16T23:58:39.054Z,97182.75
